Time;durP1;ratioP1;P1;durP2;ratioP2;P2;SDS_P1;SDS_P2;PMS_P1;PMS_P2;Temp;Humidity;BMP_temperature;BMP_pressure;BME280_temperature;BME280_humidity;BME280_pressure;Samples;Min_cycle;Max_cycle;Signal;HPM_P1;HPM_P2
2022/02/04 00:01:54;;;;;;;32.67;14.53;;;;;;;2.51;76.55;98689.97;2281736;78;20951;-84
2022/02/04 00:04:35;;;;;;;32.53;14.20;;;;;;;2.45;77.52;98692.70;2282247;78;21390;-84
2022/02/04 00:23:24;;;;;;;27.87;13.27;;;;;;;2.43;79.44;98707.21;2260882;78;21333;-82
2022/02/04 00:26:27;;;;;;;31.37;13.30;;;;;;;2.46;79.93;98708.22;2280844;78;20993;-83
2022/02/04 00:29:31;;;;;;;33.70;13.67;;;;;;;2.49;79.94;98707.05;2281085;78;21083;-84
2022/02/04 00:32:31;;;;;;;31.93;13.55;;;;;;;2.50;79.88;98701.09;2260914;78;20974;-83
2022/02/04 00:35:44;;;;;;;30.77;12.50;;;;;;;2.51;80.24;98698.98;2280886;78;21064;-83
2022/02/04 00:38:38;;;;;;;24.53;11.63;;;;;;;2.51;80.32;98695.12;2279574;78;21037;-83
2022/02/04 00:41:39;;;;;;;22.93;11.40;;;;;;;2.50;80.87;98697.22;2280558;78;20910;-82
2022/02/04 00:44:42;;;;;;;23.93;10.80;;;;;;;2.48;80.92;98699.27;2281706;78;21331;-83
2022/02/04 00:47:52;;;;;;;23.87;11.30;;;;;;;2.46;81.45;98691.47;2260859;78;21353;-84
2022/02/04 01:30:17;;;;;;;21.67;10.10;;;;;;;2.41;83.30;98647.02;2195830;79;21429;-84
2022/02/04 01:33:14;;;;;;;19.77;11.07;;;;;;;2.44;83.45;98641.98;2275529;78;21029;-84
2022/02/04 01:36:19;;;;;;;23.27;10.15;;;;;;;2.45;83.18;98635.61;2239540;78;21133;-84
2022/02/04 01:39:23;;;;;;;17.93;9.50;;;;;;;2.43;83.85;98633.38;2241435;79;21007;-84
2022/02/04 01:42:35;;;;;;;20.23;10.33;;;;;;;2.38;83.57;98632.31;2266058;78;22103;-84
2022/02/04 01:45:36;;;;;;;20.03;11.37;;;;;;;2.35;83.47;98624.88;2279874;78;21037;-84
2022/02/04 01:51:42;;;;;;;22.57;12.53;;;;;;;2.34;83.43;98626.98;2251635;78;21038;-83
2022/02/04 01:57:47;;;;;;;20.57;12.80;;;;;;;2.36;83.52;98623.65;2260103;78;20962;-82
2022/02/04 02:00:47;;;;;;;26.00;13.43;;;;;;;2.35;83.88;98619.73;2281268;78;21341;-84
2022/02/04 02:03:49;;;;;;;23.27;12.73;;;;;;;2.33;83.65;98619.66;2280490;78;20977;-83
2022/02/04 02:06:55;;;;;;;24.50;12.67;;;;;;;2.37;83.70;98618.97;2281485;78;20954;-84
2022/02/04 02:10:07;;;;;;;22.65;13.32;;;;;;;2.36;83.75;98615.92;2280119;78;21005;-83
2022/02/04 02:40:01;;;;;;;19.73;12.50;;;;;;;2.38;83.91;98591.52;2291699;77;20956;-83
2022/02/04 02:56:18;;;;;;;21.47;11.73;;;;;;;2.42;84.09;98577.53;2289779;77;21004;-83
2022/02/04 02:59:02;;;;;;;13.70;11.17;;;;;;;2.42;83.96;98572.38;2287864;77;21012;-85
2022/02/04 03:02:05;;;;;;;20.53;11.97;;;;;;;2.44;83.92;98570.73;2290412;77;21028;-83
2022/02/04 03:05:12;;;;;;;27.00;14.07;;;;;;;2.44;83.89;98565.99;2291490;77;20952;-83
2022/02/04 03:08:12;;;;;;;21.50;12.87;;;;;;;2.46;83.91;98566.52;2291784;78;20893;-84
2022/02/04 03:11:14;;;;;;;21.37;13.07;;;;;;;2.49;83.84;98564.47;2291813;78;21371;-81
2022/02/04 03:14:14;;;;;;;22.90;13.77;;;;;;;2.52;83.86;98565.47;2290786;78;21023;-83
2022/02/04 03:17:15;;;;;;;24.37;14.40;;;;;;;2.55;83.76;98565.59;2291386;78;21015;-83
2022/02/04 03:20:17;;;;;;;24.27;14.07;;;;;;;2.56;83.75;98559.62;2291357;78;21035;-83
2022/02/04 03:23:19;;;;;;;23.97;13.47;;;;;;;2.63;83.70;98561.17;2256112;77;21046;-84
2022/02/04 03:26:42;;;;;;;25.60;13.70;;;;;;;2.66;83.64;98566.44;2248941;78;21426;-84
2022/02/04 03:29:59;;;;;;;23.15;12.85;;;;;;;2.70;83.54;98567.91;2246264;77;20980;-83
2022/02/04 03:32:44;;;;;;;23.13;13.23;;;;;;;2.75;83.35;98562.93;2245799;79;21055;-78
2022/02/04 03:35:42;;;;;;;21.77;13.40;;;;;;;2.77;83.34;98554.84;2247072;79;21060;-84
2022/02/04 03:38:42;;;;;;;19.97;13.23;;;;;;;2.78;83.25;98553.61;2247669;79;20975;-84
2022/02/04 03:41:43;;;;;;;24.43;14.00;;;;;;;2.79;83.33;98547.64;2248141;79;20955;-84
2022/02/04 03:44:44;;;;;;;25.03;15.50;;;;;;;2.81;83.32;98550.27;2249257;79;20963;-83
2022/02/04 03:47:45;;;;;;;29.13;16.60;;;;;;;2.80;83.28;98552.38;2248865;79;21090;-84
2022/02/04 03:50:45;;;;;;;28.90;15.77;;;;;;;2.80;83.33;98549.39;2248944;79;20869;-84
2022/02/04 03:53:46;;;;;;;24.33;15.37;;;;;;;2.82;83.25;98554.61;2248522;78;21351;-84
2022/02/04 03:56:46;;;;;;;27.13;14.33;;;;;;;2.83;83.24;98558.53;2249454;79;20952;-84
2022/02/04 03:59:46;;;;;;;23.27;15.03;;;;;;;2.87;83.24;98555.66;2248614;79;20976;-83
2022/02/04 04:02:47;;;;;;;28.70;14.87;;;;;;;2.86;83.16;98550.03;2250021;79;20913;-83
2022/02/04 04:05:49;;;;;;;21.20;13.57;;;;;;;2.87;83.15;98553.08;2250064;79;20920;-84
2022/02/04 04:08:53;;;;;;;30.23;15.13;;;;;;;2.86;83.05;98553.48;2249460;79;21019;-84
2022/02/04 04:11:53;;;;;;;19.57;12.80;;;;;;;2.87;83.07;98554.36;2248615;76;21036;-84
2022/02/04 04:14:56;;;;;;;19.40;12.70;;;;;;;2.91;83.33;98540.77;2248800;79;20947;-83
2022/02/04 04:17:56;;;;;;;20.67;13.20;;;;;;;2.91;83.02;98537.31;2248462;78;21063;-84
2022/02/04 04:20:56;;;;;;;22.03;13.17;;;;;;;2.91;83.10;98539.89;2249352;79;20940;-84
2022/02/04 04:23:58;;;;;;;26.87;14.40;;;;;;;2.92;83.20;98536.08;2248578;77;20976;-85
2022/02/04 04:26:58;;;;;;;20.83;14.03;;;;;;;2.89;83.04;98538.55;2248595;79;20975;-83
2022/02/04 04:29:59;;;;;;;25.40;14.67;;;;;;;2.87;83.04;98537.20;2249399;79;20928;-84
2022/02/04 04:36:05;;;;;;;21.27;14.07;;;;;;;2.88;83.13;98535.50;2214950;80;21433;-84
2022/02/04 05:28:58;;;;;;;23.67;15.40;;;;;;;8.55;79.49;98493.34;2288855;77;21062;-82
2022/02/04 05:31:45;;;;;;;25.90;17.20;;;;;;;10.43;80.99;98493.27;2286364;78;21035;-82
2022/02/04 05:34:49;;;;;;;23.20;16.53;;;;;;;11.67;76.86;98495.14;2288525;78;21047;-83
2022/02/04 05:37:50;;;;;;;24.73;16.10;;;;;;;12.36;74.73;98489.58;2288602;77;21022;-84
2022/02/04 05:40:52;;;;;;;26.37;18.40;;;;;;;12.56;68.33;98489.55;2289423;78;20979;-83
2022/02/04 05:43:58;;;;;;;29.20;19.37;;;;;;;10.63;63.98;98503.84;2265945;78;21329;-84
2022/02/04 05:47:05;;;;;;;29.00;19.02;;;;;;;8.81;64.15;98503.71;2289115;78;21137;-81
2022/02/04 05:53:17;;;;;;;36.37;22.00;;;;;;;6.56;66.82;98504.77;2267151;78;21054;-82
2022/02/04 06:00:12;;;;;;;32.67;22.20;;;;;;;5.24;69.57;98510.94;2241171;78;20992;-82
2022/02/04 06:02:52;;;;;;;30.02;19.23;;;;;;;4.83;70.71;98509.73;2262616;78;21010;-84
2022/02/04 06:25:08;;;;;;;28.20;17.30;;;;;;;3.24;76.04;98511.86;2291513;77;21960;-84
2022/02/04 06:28:08;;;;;;;32.87;18.53;;;;;;;3.10;76.62;98511.37;2291710;78;21324;-85
2022/02/04 06:31:09;;;;;;;29.23;17.80;;;;;;;3.04;77.04;98513.31;2290758;78;20982;-83
2022/02/04 06:34:09;;;;;;;34.37;18.57;;;;;;;3.00;77.45;98514.44;2289946;78;20975;-84
2022/02/04 06:37:10;;;;;;;28.07;16.97;;;;;;;2.93;77.89;98512.05;2289359;78;20964;-84
2022/02/04 06:40:10;;;;;;;35.20;19.23;;;;;;;2.89;78.10;98510.19;2289682;78;20936;-84
2022/02/04 06:43:11;;;;;;;35.37;19.67;;;;;;;2.87;78.49;98509.25;2290065;78;20983;-84
2022/02/04 06:46:11;;;;;;;31.37;18.33;;;;;;;2.89;78.70;98510.19;2291314;78;20986;-84
2022/02/04 06:49:11;;;;;;;35.93;19.60;;;;;;;2.91;78.94;98500.80;2290492;78;20971;-83
2022/02/04 06:52:12;;;;;;;43.63;23.40;;;;;;;2.95;79.05;98495.35;2289663;78;20987;-84
2022/02/04 06:55:12;;;;;;;38.27;21.37;;;;;;;2.94;79.16;98491.89;2289884;78;21018;-82
2022/02/04 06:58:14;;;;;;;40.60;19.13;;;;;;;2.98;79.36;98491.59;2288321;78;21014;-82
2022/02/04 07:01:15;;;;;;;36.17;18.80;;;;;;;3.03;79.51;98490.05;2288495;78;20986;-81
2022/02/04 07:07:18;;;;;;;37.33;19.07;;;;;;;3.13;79.47;98493.42;2265288;78;20956;-83
2022/02/04 07:10:30;;;;;;;36.03;19.37;;;;;;;3.16;79.26;98491.83;2288352;78;21014;-82
2022/02/04 07:13:26;;;;;;;36.57;18.77;;;;;;;3.16;79.25;98490.95;2287233;77;21030;-82
2022/02/04 07:16:39;;;;;;;37.07;18.97;;;;;;;3.18;79.41;98489.31;2288168;77;21039;-83
2022/02/04 07:19:50;;;;;;;41.40;20.67;;;;;;;3.21;79.33;98489.41;2289009;78;21052;-83
2022/02/04 07:22:51;;;;;;;39.60;20.20;;;;;;;3.27;79.42;98496.48;2287443;78;21108;-84
2022/02/04 07:25:51;;;;;;;42.23;22.33;;;;;;;3.32;79.38;98499.69;2279101;78;21056;-84
2022/02/04 07:28:54;;;;;;;39.60;21.17;;;;;;;3.37;79.38;98499.44;2279830;78;20934;-84
2022/02/04 07:31:54;;;;;;;40.70;21.40;;;;;;;3.40;79.27;98501.25;2280065;78;21397;-85
2022/02/04 07:41:16;;;;;;;36.17;19.43;;;;;;;3.54;79.48;98506.50;2279204;78;21032;-84
2022/02/04 07:44:17;;;;;;;33.97;18.70;;;;;;;3.62;79.43;98512.80;2278997;78;20965;-84
2022/02/04 07:47:17;;;;;;;56.43;32.33;;;;;;;3.66;79.35;98515.06;2278442;78;21047;-84
2022/02/04 07:50:20;;;;;;;35.43;20.00;;;;;;;3.72;79.43;98522.60;2279303;78;20941;-84
2022/02/04 07:53:20;;;;;;;35.23;20.73;;;;;;;3.80;79.36;98518.98;2279106;78;21022;-84
2022/02/04 07:56:22;;;;;;;33.73;20.63;;;;;;;3.86;79.23;98519.59;2280162;78;20958;-85
2022/02/04 07:59:23;;;;;;;34.07;21.10;;;;;;;3.89;79.10;98520.58;2280605;78;21033;-84
2022/02/04 08:02:23;;;;;;;33.23;20.07;;;;;;;3.94;79.04;98512.56;2280595;78;21396;-84
2022/02/04 08:05:28;;;;;;;31.97;19.27;;;;;;;4.02;79.05;98516.27;2280692;78;21368;-85
2022/02/04 08:08:43;;;;;;;32.23;18.33;;;;;;;4.12;78.90;98513.16;2280068;78;21084;-85
2022/02/04 08:12:05;;;;;;;36.97;19.17;;;;;;;4.18;78.68;98513.76;2276178;78;21021;-84
2022/02/04 08:18:20;;;;;;;34.83;19.42;;;;;;;4.15;78.60;98514.95;2258593;78;22043;-83
2022/02/04 08:34:03;;;;;;;30.70;19.27;;;;;;;3.97;79.04;98516.53;2270777;77;21042;-84
2022/02/04 08:37:23;;;;;;;31.10;19.33;;;;;;;3.98;78.98;98518.70;2300088;77;21031;-84
2022/02/04 08:53:31;;;;;;;34.48;20.05;;;;;;;4.41;79.06;98515.38;2271070;77;20963;-80
2022/02/04 08:56:07;;;;;;;38.20;20.60;;;;;;;4.53;78.43;98514.00;2298374;77;21010;-84
2022/02/04 08:59:18;;;;;;;40.60;24.13;;;;;;;4.66;78.26;98516.13;2304172;77;20908;-82
2022/02/04 09:02:16;;;;;;;39.70;22.07;;;;;;;4.76;77.92;98515.14;2301592;77;21026;-84
2022/02/04 09:05:16;;;;;;;38.77;20.33;;;;;;;4.80;77.97;98516.98;2302479;77;21019;-80
2022/02/04 09:08:29;;;;;;;40.17;20.37;;;;;;;4.85;77.97;98508.48;2303548;77;21059;-83
2022/02/04 09:11:49;;;;;;;21.47;12.40;;;;;;;4.90;77.31;98496.56;2301873;77;21008;-83
2022/02/04 09:21:13;;;;;;;21.00;10.50;;;;;;;4.93;74.44;98512.17;2271293;77;20993;-83
2022/02/04 09:24:01;;;;;;;20.07;11.87;;;;;;;4.93;73.97;98506.58;2289425;77;21032;-83
2022/02/04 09:27:02;;;;;;;20.93;11.40;;;;;;;4.93;73.47;98506.58;2257043;78;21028;-82
2022/02/04 09:30:03;;;;;;;19.00;11.63;;;;;;;4.95;73.00;98510.50;2279066;78;21037;-80
2022/02/04 09:33:05;;;;;;;23.23;11.43;;;;;;;4.94;72.61;98504.87;2280444;78;20965;-83
2022/02/04 09:36:05;;;;;;;25.43;11.30;;;;;;;4.93;72.28;98498.82;2278952;78;20970;-84
2022/02/04 09:39:06;;;;;;;22.03;11.93;;;;;;;4.92;72.08;98494.48;2278634;78;20973;-83
2022/02/04 09:42:07;;;;;;;20.63;12.20;;;;;;;4.92;72.41;98503.53;2279701;78;20933;-83
2022/02/04 09:45:07;;;;;;;22.53;11.43;;;;;;;4.90;72.00;98498.73;2280187;78;20938;-83
2022/02/04 09:48:10;;;;;;;23.33;11.77;;;;;;;4.94;71.83;98500.99;2278486;78;21056;-82
2022/02/04 09:51:13;;;;;;;23.10;12.53;;;;;;;5.01;72.25;98501.63;2278195;78;21057;-83
2022/02/04 10:07:49;;;;;;;23.83;12.90;;;;;;;5.28;71.01;98488.60;2278228;78;21020;-83
2022/02/04 10:13:55;;;;;;;25.07;13.43;;;;;;;5.20;71.13;98490.98;2259049;78;21087;-83
2022/02/04 10:20:00;;;;;;;29.37;14.07;;;;;;;5.35;70.38;98474.98;2278898;78;21408;-81
2022/02/04 10:23:00;;;;;;;31.10;13.63;;;;;;;5.37;71.14;98484.96;2278890;77;20992;-82
2022/02/04 10:26:01;;;;;;;27.00;13.70;;;;;;;5.42;71.08;98483.38;2288927;78;21015;-83
2022/02/04 10:29:01;;;;;;;25.93;13.67;;;;;;;5.48;71.07;98483.53;2287701;78;21355;-81
2022/02/04 10:32:02;;;;;;;28.93;14.73;;;;;;;5.51;71.41;98473.25;2288202;78;21019;-83
2022/02/04 10:35:02;;;;;;;29.87;15.73;;;;;;;5.56;71.11;98471.66;2288209;78;20936;-82
2022/02/04 10:38:32;;;;;;;28.47;13.70;;;;;;;5.64;71.05;98464.09;2288465;78;20964;-82
2022/02/04 10:44:24;;;;;;;31.10;16.27;;;;;;;5.86;70.73;98463.77;2266643;78;21518;-78
2022/02/04 10:47:12;;;;;;;31.20;14.90;;;;;;;5.99;70.49;98467.15;2285598;77;21051;-83
2022/02/04 10:50:18;;;;;;;27.67;13.83;;;;;;;5.99;70.13;98469.73;2288670;78;21082;-81
2022/02/04 11:00:05;;;;;;;28.53;15.13;;;;;;;5.85;69.89;98469.80;2288566;77;21087;-82
2022/02/04 11:03:04;;;;;;;23.80;14.07;;;;;;;5.95;69.71;98465.33;2286225;77;21007;-82
2022/02/04 11:06:54;;;;;;;28.03;13.83;;;;;;;6.05;69.68;98462.53;2287965;77;21010;-82
2022/02/04 11:30:56;;;;;;;30.43;15.87;;;;;;;6.15;69.06;98456.75;2290742;77;21074;-83
2022/02/04 11:32:04;;;;;;;27.13;14.13;;;;;;;6.34;69.07;98439.48;2289646;77;21997;-80
2022/02/04 11:34:46;;;;;;;29.60;14.80;;;;;;;6.29;69.09;98433.73;2287060;77;21044;-83
2022/02/04 11:54:43;;;;;;;28.17;14.73;;;;;;;5.91;69.46;98417.29;2266712;78;21059;-81
2022/02/04 11:56:58;;;;;;;32.07;15.27;;;;;;;5.93;69.20;98416.48;2286744;78;21028;-83
2022/02/04 11:59:59;;;;;;;29.70;15.90;;;;;;;5.91;69.20;98417.29;2289339;78;21015;-82
2022/02/04 12:03:00;;;;;;;29.53;15.57;;;;;;;5.90;69.14;98407.77;2289500;78;20980;-82
2022/02/04 12:06:02;;;;;;;33.00;16.80;;;;;;;5.90;68.91;98411.66;2289923;78;21047;-82
2022/02/04 12:09:02;;;;;;;28.97;14.83;;;;;;;5.83;69.37;98417.08;2289190;78;21070;-81
2022/02/04 12:12:03;;;;;;;26.73;15.17;;;;;;;5.76;68.40;98413.47;2289216;78;21454;-82
2022/02/04 12:15:03;;;;;;;26.83;14.13;;;;;;;5.67;69.08;98417.13;2289508;78;21413;-82
2022/02/04 12:18:04;;;;;;;34.27;16.47;;;;;;;5.61;69.28;98411.80;2289095;78;20943;-81
2022/02/04 12:21:04;;;;;;;28.43;14.70;;;;;;;5.60;69.35;98410.05;2288971;78;20983;-82
2022/02/04 12:24:05;;;;;;;31.30;16.23;;;;;;;5.58;69.48;98413.45;2288264;78;20980;-81
2022/02/04 12:27:05;;;;;;;32.30;16.57;;;;;;;5.57;69.59;98413.86;2288356;78;20963;-82
2022/02/04 12:30:06;;;;;;;34.30;17.47;;;;;;;5.58;69.66;98413.02;2288279;78;21038;-82
2022/02/04 12:33:06;;;;;;;35.80;16.70;;;;;;;5.62;69.48;98413.56;2287605;78;20967;-82
2022/02/04 12:36:07;;;;;;;33.80;16.30;;;;;;;5.61;69.60;98418.28;2287809;78;20936;-82
2022/02/04 12:39:07;;;;;;;29.87;15.67;;;;;;;5.63;69.42;98414.02;2289098;78;20975;-83
2022/02/04 12:42:13;;;;;;;36.87;16.73;;;;;;;5.63;69.45;98414.02;2287869;78;21991;-81
2022/02/04 12:45:13;;;;;;;32.60;17.30;;;;;;;5.62;69.16;98409.67;2287692;78;20987;-81
2022/02/04 12:48:14;;;;;;;33.70;16.97;;;;;;;5.56;69.33;98406.06;2287891;78;20984;-81
2022/02/04 12:51:20;;;;;;;41.23;17.87;;;;;;;5.58;69.64;98403.09;2288318;78;20987;-82
2022/02/04 12:54:17;;;;;;;39.13;17.27;;;;;;;5.63;69.43;98404.95;2287499;77;21048;-82
2022/02/04 13:01:57;;;;;;;42.77;19.37;;;;;;;5.58;69.59;98402.67;2266122;78;21030;-82
2022/02/04 13:03:25;;;;;;;43.00;20.27;;;;;;;5.60;69.71;98394.52;2286953;77;21037;-82
2022/02/04 13:09:51;;;;;;;39.33;19.47;;;;;;;5.62;69.67;98398.02;2290596;78;21059;-85
2022/02/04 13:12:52;;;;;;;39.53;18.23;;;;;;;5.61;69.70;98389.80;2291004;78;21047;-83
2022/02/04 13:15:54;;;;;;;38.10;18.93;;;;;;;5.59;69.71;98390.59;2290472;78;20956;-84
2022/02/04 13:18:55;;;;;;;35.47;18.17;;;;;;;5.58;69.90;98383.67;2289140;78;21039;-83
2022/02/04 13:21:55;;;;;;;37.20;18.43;;;;;;;5.59;69.84;98385.00;2290135;78;21252;-84
2022/02/04 13:24:56;;;;;;;33.47;16.40;;;;;;;5.56;70.15;98385.34;2287016;78;21009;-83
2022/02/04 13:27:56;;;;;;;40.50;18.93;;;;;;;5.56;69.72;98385.34;2279892;78;21079;-83
2022/02/04 13:31:00;;;;;;;44.30;18.83;;;;;;;5.53;69.91;98386.15;2278995;78;20997;-84
2022/02/04 13:34:01;;;;;;;35.98;18.77;;;;;;;5.53;70.17;98388.73;2280084;78;21061;-85
2022/02/04 13:37:05;;;;;;;34.27;18.53;;;;;;;5.52;70.07;98376.63;2279760;78;20949;-83
2022/02/04 13:43:06;;;;;;;42.43;20.20;;;;;;;5.42;70.26;98382.42;2259504;78;21089;-83
2022/02/04 13:46:18;;;;;;;44.87;19.60;;;;;;;5.41;70.37;98380.25;2280621;78;21029;-83
2022/02/04 13:52:18;;;;;;;33.93;18.93;;;;;;;5.33;70.65;98384.78;2258486;78;20993;-83
2022/02/04 13:55:26;;;;;;;44.43;19.53;;;;;;;5.31;70.82;98387.75;2278028;78;21425;-84
2022/02/04 14:01:33;;;;;;;39.17;20.57;;;;;;;5.23;70.87;98392.73;2259414;78;21100;-87
2022/02/04 14:04:30;;;;;;;40.30;20.50;;;;;;;5.19;71.12;98387.41;2280130;77;21009;-85
2022/02/04 14:07:33;;;;;;;40.00;19.87;;;;;;;5.20;71.24;98391.75;2259687;78;21155;-84
2022/02/04 14:10:38;;;;;;;48.13;19.83;;;;;;;5.15;71.29;98385.16;2281303;78;20937;-85
2022/02/04 14:13:36;;;;;;;38.63;18.70;;;;;;;5.13;71.51;98379.07;2279650;77;21054;-85
2022/02/04 14:16:36;;;;;;;39.87;19.40;;;;;;;5.14;71.55;98374.36;2280980;78;21005;-85
2022/02/04 14:19:37;;;;;;;38.50;18.70;;;;;;;5.13;71.71;98370.89;2280555;78;20977;-84
2022/02/04 14:22:37;;;;;;;36.80;18.13;;;;;;;5.11;71.99;98367.80;2279470;78;20930;-84
2022/02/04 14:25:38;;;;;;;37.23;18.43;;;;;;;5.07;72.34;98367.27;2281355;77;21044;-84
2022/02/04 14:28:45;;;;;;;39.80;18.33;;;;;;;5.09;72.79;98370.77;2281311;78;20954;-84
2022/02/04 14:31:52;;;;;;;32.83;17.80;;;;;;;5.08;72.85;98371.19;2281196;77;21118;-85
2022/02/04 14:35:01;;;;;;;38.73;17.43;;;;;;;5.10;72.81;98372.11;2279106;78;21535;-85
2022/02/04 14:54:45;;;;;;;41.63;20.70;;;;;;;4.93;73.44;98364.33;2281462;78;21005;-86
2022/02/04 15:00:52;;;;;;;42.47;21.00;;;;;;;4.92;73.43;98369.05;2280244;78;21482;-85
2022/02/04 15:07:00;;;;;;;41.03;19.57;;;;;;;4.84;73.44;98378.31;2258737;78;21025;-80
2022/02/04 15:10:02;;;;;;;42.23;20.23;;;;;;;5.89;78.32;98373.61;2278541;77;21076;-80
2022/02/04 15:13:02;;;;;;;35.90;19.70;;;;;;;5.86;73.44;98370.95;2278759;78;21064;-79
2022/02/04 15:16:06;;;;;;;40.70;19.40;;;;;;;5.56;72.60;98368.10;2278765;78;20980;-79
2022/02/04 15:19:05;;;;;;;36.67;19.50;;;;;;;5.34;72.76;98368.42;2279300;78;20993;-79
2022/02/04 15:22:08;;;;;;;35.03;19.90;;;;;;;5.15;72.83;98368.34;2280943;78;21344;-79
2022/02/04 15:25:17;;;;;;;39.47;19.57;;;;;;;4.98;73.09;98369.20;2281235;78;21033;-80
2022/02/04 15:28:34;;;;;;;35.90;19.13;;;;;;;4.85;73.42;98365.84;2278560;78;20984;-79
2022/02/04 15:31:30;;;;;;;36.87;18.13;;;;;;;4.74;73.77;98372.43;2276631;78;21175;-80
2022/02/04 15:34:23;;;;;;;37.13;18.53;;;;;;;4.65;74.12;98377.35;2277975;78;21001;-79
2022/02/04 15:37:24;;;;;;;36.23;18.57;;;;;;;4.57;74.36;98376.27;2278617;78;21033;-79
2022/02/04 15:40:24;;;;;;;44.80;18.13;;;;;;;4.48;74.63;98380.34;2278598;78;20961;-79
2022/02/04 15:43:27;;;;;;;40.17;20.90;;;;;;;4.41;74.93;98384.00;2278114;78;20957;-79
2022/02/04 15:46:47;;;;;;;37.53;19.03;;;;;;;4.35;75.08;98380.83;2280675;78;21049;-79
2022/02/04 15:52:56;;;;;;;35.60;18.70;;;;;;;4.34;75.82;98370.45;2259758;78;21009;-80
2022/02/04 15:56:11;;;;;;;37.40;20.30;;;;;;;4.33;75.83;98372.54;2278847;77;21029;-79
2022/02/04 15:59:09;;;;;;;47.67;22.90;;;;;;;4.28;75.94;98371.11;2276498;78;21357;-80
2022/02/04 16:05:19;;;;;;;43.77;20.83;;;;;;;4.16;76.35;98365.17;2281430;78;20982;-80
2022/02/04 16:08:21;;;;;;;36.10;20.73;;;;;;;4.08;76.34;98373.53;2281607;78;20996;-79
2022/02/04 16:17:52;;;;;;;49.77;24.23;;;;;;;4.00;76.49;98369.43;2277990;78;21067;-79
2022/02/04 16:30:34;;;;;;;51.87;25.27;;;;;;;3.93;76.48;98353.70;2241304;79;20985;-80
2022/02/04 16:33:34;;;;;;;49.10;25.07;;;;;;;3.93;76.50;98345.96;2240920;79;21279;-80
2022/02/04 16:36:37;;;;;;;52.17;24.03;;;;;;;3.92;76.53;98343.80;2240041;79;21314;-80
2022/02/04 16:39:37;;;;;;;50.47;24.43;;;;;;;3.90;76.56;98344.16;2240725;79;20975;-80
2022/02/04 16:42:38;;;;;;;50.67;24.03;;;;;;;3.90;76.78;98339.41;2241232;79;20956;-80
2022/02/04 16:45:38;;;;;;;53.27;24.90;;;;;;;3.90;76.64;98336.42;2240404;79;20964;-80
2022/02/04 16:48:39;;;;;;;51.50;25.30;;;;;;;3.88;76.73;98337.20;2241254;79;20960;-79
2022/02/04 16:51:40;;;;;;;46.43;23.90;;;;;;;3.87;76.78;98332.87;2240976;79;21298;-80
2022/02/04 16:54:41;;;;;;;46.53;23.93;;;;;;;3.85;76.89;98334.11;2241691;79;20951;-81
2022/02/04 16:57:46;;;;;;;45.13;24.33;;;;;;;3.82;76.93;98332.73;2241714;79;20925;-85
2022/02/04 17:00:46;;;;;;;44.20;24.27;;;;;;;3.78;76.99;98343.38;2241517;79;21119;-84
2022/02/04 17:03:47;;;;;;;41.60;23.43;;;;;;;3.79;77.17;98346.42;2240758;79;20963;-84
2022/02/04 17:06:56;;;;;;;43.40;21.63;;;;;;;3.83;77.21;98348.68;2241949;79;20991;-84
2022/02/04 17:09:52;;;;;;;49.87;23.87;;;;;;;3.86;77.17;98347.90;2241149;79;21000;-84
2022/02/04 17:12:58;;;;;;;41.10;23.77;;;;;;;3.87;77.15;98347.94;2242186;79;20968;-83
2022/02/04 17:15:54;;;;;;;45.00;24.03;;;;;;;3.84;77.15;98346.56;2241239;79;21015;-84
2022/02/04 17:18:55;;;;;;;45.30;24.40;;;;;;;3.83;77.23;98348.27;2242631;79;20951;-84
2022/02/04 17:21:59;;;;;;;47.73;25.57;;;;;;;3.84;77.26;98348.73;2240849;79;20960;-85
2022/02/04 17:24:59;;;;;;;50.00;25.37;;;;;;;3.83;77.30;98347.39;2245194;78;21039;-84
2022/02/04 17:28:02;;;;;;;45.37;24.73;;;;;;;3.82;77.35;98350.80;2259209;78;20997;-85
2022/02/04 17:31:02;;;;;;;44.13;25.57;;;;;;;3.81;77.75;98345.17;2281592;78;20977;-85
2022/02/04 17:34:03;;;;;;;41.03;23.47;;;;;;;3.85;77.63;98353.48;2283054;78;20930;-84
2022/02/04 17:37:04;;;;;;;45.20;23.53;;;;;;;3.86;77.68;98349.19;2283273;78;20946;-84
2022/02/04 17:40:04;;;;;;;40.50;23.53;;;;;;;3.86;77.80;98343.61;2282794;78;20993;-85
2022/02/04 17:43:05;;;;;;;39.17;22.83;;;;;;;3.87;77.79;98344.48;2282334;78;21340;-83
2022/02/04 17:46:05;;;;;;;44.77;24.00;;;;;;;3.87;77.95;98336.33;2282357;78;21383;-80
2022/02/04 17:49:15;;;;;;;41.57;24.77;;;;;;;3.84;78.01;98325.91;2282214;78;20902;-84
2022/02/04 17:52:19;;;;;;;45.57;25.20;;;;;;;3.91;78.38;98324.38;2280584;78;21002;-84
2022/02/04 17:55:18;;;;;;;39.23;22.77;;;;;;;3.96;78.31;98328.85;2280866;78;20958;-84
2022/02/04 18:01:51;;;;;;;47.90;24.43;;;;;;;4.05;78.08;98332.99;2272057;78;21055;-84
2022/02/04 18:07:54;;;;;;;53.85;24.27;;;;;;;4.04;78.13;98310.58;2272495;78;21025;-84
2022/02/04 18:10:55;;;;;;;48.60;24.53;;;;;;;4.05;78.16;98316.63;2282467;78;20974;-83
2022/02/04 18:13:55;;;;;;;45.27;23.57;;;;;;;4.03;78.23;98310.13;2282683;78;20950;-84
2022/02/04 18:16:56;;;;;;;44.77;25.00;;;;;;;4.05;78.24;98302.42;2281921;78;20942;-83
2022/02/04 18:19:56;;;;;;;39.93;23.70;;;;;;;4.05;78.21;98302.00;2282057;78;20934;-83
2022/02/04 18:22:57;;;;;;;44.30;25.57;;;;;;;4.01;78.30;98298.88;2281912;78;20961;-84
2022/02/04 18:25:57;;;;;;;45.37;25.50;;;;;;;3.94;78.30;98299.94;2281436;77;20970;-84
2022/02/04 18:28:59;;;;;;;44.87;24.70;;;;;;;3.84;78.33;98299.67;2282389;78;20887;-83
2022/02/04 18:31:59;;;;;;;48.83;26.93;;;;;;;3.73;78.60;98293.73;2282002;78;21065;-83
2022/02/04 18:35:01;;;;;;;47.07;26.47;;;;;;;3.65;78.74;98298.66;2282330;78;21298;-84
2022/02/04 18:38:30;;;;;;;57.70;29.90;;;;;;;3.55;79.04;98290.60;2282217;78;20953;-84
2022/02/04 18:41:36;;;;;;;49.63;28.03;;;;;;;3.47;79.39;98293.82;2279317;77;21024;-83
2022/02/04 18:44:29;;;;;;;49.23;26.40;;;;;;;3.39;79.58;98286.64;2279095;78;21065;-81
2022/02/04 18:50:48;;;;;;;54.80;29.17;;;;;;;3.38;79.97;98275.86;2261166;78;20989;-84
2022/02/04 18:53:53;;;;;;;53.23;26.70;;;;;;;3.38;80.01;98283.19;2279878;77;21031;-85
2022/02/04 19:00:11;;;;;;;53.87;28.80;;;;;;;3.43;80.04;98288.48;2261856;78;21326;-82
2022/02/04 19:03:12;;;;;;;52.93;30.03;;;;;;;3.48;80.00;98289.53;2281064;78;21092;-84
2022/02/04 19:06:15;;;;;;;50.23;28.03;;;;;;;3.50;80.07;98285.30;2281591;78;21010;-84
2022/02/04 19:09:11;;;;;;;48.43;28.63;;;;;;;3.55;80.03;98289.31;2281071;78;21045;-83
2022/02/04 19:12:16;;;;;;;52.57;28.80;;;;;;;3.59;80.07;98293.31;2281326;78;20973;-84
2022/02/04 19:18:33;;;;;;;53.73;27.87;;;;;;;3.62;79.96;98289.54;2261428;78;21053;-84
2022/02/04 19:21:47;;;;;;;55.07;29.10;;;;;;;3.64;79.93;98294.34;2279429;77;21032;-84
2022/02/04 19:24:44;;;;;;;56.73;29.93;;;;;;;3.65;79.88;98296.09;2279998;77;20945;-83
2022/02/04 19:27:44;;;;;;;49.43;27.50;;;;;;;3.67;79.90;98287.97;2282298;77;21030;-83
2022/02/04 19:30:49;;;;;;;52.57;28.37;;;;;;;3.71;79.87;98280.78;2281829;78;21298;-82
2022/02/04 19:33:47;;;;;;;46.60;27.90;;;;;;;3.72;79.74;98279.08;2282112;77;20914;-82
2022/02/04 19:36:48;;;;;;;50.27;28.37;;;;;;;3.75;79.78;98277.87;2282238;78;20934;-83
2022/02/04 19:39:50;;;;;;;46.20;27.27;;;;;;;3.74;79.77;98273.55;2282879;78;21382;-83
2022/02/04 19:42:51;;;;;;;46.87;26.97;;;;;;;3.74;79.68;98270.96;2282561;78;21018;-83
2022/02/04 19:46:04;;;;;;;44.07;27.43;;;;;;;3.77;79.68;98276.21;2282573;78;20978;-82
2022/02/04 19:49:00;;;;;;;48.67;27.07;;;;;;;3.80;79.63;98275.89;2280961;78;21008;-82
2022/02/04 19:52:16;;;;;;;48.87;26.80;;;;;;;3.81;79.59;98276.77;2281977;77;20954;-83
2022/02/04 19:55:39;;;;;;;49.47;26.70;;;;;;;3.80;79.50;98277.18;2279924;77;21377;-81
2022/02/04 20:27:46;;;;;;;46.87;23.83;;;;;;;3.93;79.24;98256.46;2234038;78;21043;-83
2022/02/04 20:30:47;;;;;;;38.87;22.93;;;;;;;3.96;79.09;98253.09;2256982;79;21313;-83
2022/02/04 20:33:47;;;;;;;39.70;22.30;;;;;;;3.97;79.00;98254.84;2256359;79;21013;-84
2022/02/04 20:36:48;;;;;;;35.57;22.90;;;;;;;3.94;79.00;98243.13;2256953;79;20919;-79
2022/02/04 20:39:54;;;;;;;41.77;22.83;;;;;;;3.94;78.96;98248.30;2256572;79;20954;-83
2022/02/04 20:42:53;;;;;;;37.70;22.80;;;;;;;3.96;78.90;98244.05;2225522;79;20982;-84